sensor_id;sensor_type;location;lat;lon;timestamp;temperature;humidity
24730;DHT22;12832;52.392;13.066;2023-03-03T00:01:56;24.90;26.60
24730;DHT22;12832;52.392;13.066;2023-03-03T00:04:25;24.90;26.60
24730;DHT22;12832;52.392;13.066;2023-03-03T00:06:54;24.90;26.60
24730;DHT22;12832;52.392;13.066;2023-03-03T00:09:25;24.90;26.60
24730;DHT22;12832;52.392;13.066;2023-03-03T00:11:58;24.90;26.60
24730;DHT22;12832;52.392;13.066;2023-03-03T00:14:29;24.90;26.60
24730;DHT22;12832;52.392;13.066;2023-03-03T00:17:06;24.90;26.60
24730;DHT22;12832;52.392;13.066;2023-03-03T00:19:43;24.90;26.60
24730;DHT22;12832;52.392;13.066;2023-03-03T00:22:25;24.90;26.60
24730;DHT22;12832;52.392;13.066;2023-03-03T00:27:43;24.90;26.60
24730;DHT22;12832;52.392;13.066;2023-03-03T00:30:22;25.00;26.60
24730;DHT22;12832;52.392;13.066;2023-03-03T00:32:54;24.90;26.60
24730;DHT22;12832;52.392;13.066;2023-03-03T00:35:27;25.00;26.70
24730;DHT22;12832;52.392;13.066;2023-03-03T00:37:59;25.00;26.60
24730;DHT22;12832;52.392;13.066;2023-03-03T00:40:35;25.00;26.60
24730;DHT22;12832;52.392;13.066;2023-03-03T00:43:34;24.90;26.60
24730;DHT22;12832;52.392;13.066;2023-03-03T00:46:03;25.00;26.70
24730;DHT22;12832;52.392;13.066;2023-03-03T00:51:30;24.90;26.60
24730;DHT22;12832;52.392;13.066;2023-03-03T00:54:04;25.00;26.70
24730;DHT22;12832;52.392;13.066;2023-03-03T00:56:32;24.90;26.70
24730;DHT22;12832;52.392;13.066;2023-03-03T00:59:00;25.00;26.70
24730;DHT22;12832;52.392;13.066;2023-03-03T01:01:28;25.00;26.70
24730;DHT22;12832;52.392;13.066;2023-03-03T01:03:55;25.00;26.60
24730;DHT22;12832;52.392;13.066;2023-03-03T01:06:25;25.00;26.60
24730;DHT22;12832;52.392;13.066;2023-03-03T01:08:55;25.00;26.70
24730;DHT22;12832;52.392;13.066;2023-03-03T01:11:25;25.00;26.70
24730;DHT22;12832;52.392;13.066;2023-03-03T01:13:57;25.00;26.70
24730;DHT22;12832;52.392;13.066;2023-03-03T01:16:28;25.00;26.70
24730;DHT22;12832;52.392;13.066;2023-03-03T01:18:56;25.00;26.70
24730;DHT22;12832;52.392;13.066;2023-03-03T01:21:25;25.00;26.70
24730;DHT22;12832;52.392;13.066;2023-03-03T01:23:54;25.00;26.70
24730;DHT22;12832;52.392;13.066;2023-03-03T01:26:22;25.00;26.70
24730;DHT22;12832;52.392;13.066;2023-03-03T01:28:53;25.00;26.70
24730;DHT22;12832;52.392;13.066;2023-03-03T01:31:22;25.00;26.70
24730;DHT22;12832;52.392;13.066;2023-03-03T01:33:51;25.00;26.70
24730;DHT22;12832;52.392;13.066;2023-03-03T01:36:29;25.00;26.70
24730;DHT22;12832;52.392;13.066;2023-03-03T01:38:57;25.00;26.80
24730;DHT22;12832;52.392;13.066;2023-03-03T01:41:31;25.00;26.70
24730;DHT22;12832;52.392;13.066;2023-03-03T01:44:00;25.00;26.70
24730;DHT22;12832;52.392;13.066;2023-03-03T01:47:00;25.00;26.70
24730;DHT22;12832;52.392;13.066;2023-03-03T01:50:01;25.00;26.70
24730;DHT22;12832;52.392;13.066;2023-03-03T01:52:43;25.00;26.70
24730;DHT22;12832;52.392;13.066;2023-03-03T01:55:19;25.00;26.70
24730;DHT22;12832;52.392;13.066;2023-03-03T01:58:03;25.00;26.70
24730;DHT22;12832;52.392;13.066;2023-03-03T02:00:34;24.90;26.70
24730;DHT22;12832;52.392;13.066;2023-03-03T02:03:04;25.00;26.70
24730;DHT22;12832;52.392;13.066;2023-03-03T02:05:34;25.00;26.70
24730;DHT22;12832;52.392;13.066;2023-03-03T02:08:06;25.00;26.70
24730;DHT22;12832;52.392;13.066;2023-03-03T02:10:40;25.00;26.70
24730;DHT22;12832;52.392;13.066;2023-03-03T02:13:08;25.00;26.70
24730;DHT22;12832;52.392;13.066;2023-03-03T02:15:37;25.00;26.70
24730;DHT22;12832;52.392;13.066;2023-03-03T02:18:15;25.00;26.70
24730;DHT22;12832;52.392;13.066;2023-03-03T02:23:52;25.00;26.70
24730;DHT22;12832;52.392;13.066;2023-03-03T02:26:27;25.00;26.70
24730;DHT22;12832;52.392;13.066;2023-03-03T02:28:57;25.00;26.70
24730;DHT22;12832;52.392;13.066;2023-03-03T02:31:30;25.00;26.70
24730;DHT22;12832;52.392;13.066;2023-03-03T02:33:58;25.00;26.70
24730;DHT22;12832;52.392;13.066;2023-03-03T02:36:31;25.00;26.70
24730;DHT22;12832;52.392;13.066;2023-03-03T02:39:13;25.00;26.70
24730;DHT22;12832;52.392;13.066;2023-03-03T02:44:41;25.00;26.70
24730;DHT22;12832;52.392;13.066;2023-03-03T02:47:10;25.00;26.70
24730;DHT22;12832;52.392;13.066;2023-03-03T02:49:37;25.00;26.70
24730;DHT22;12832;52.392;13.066;2023-03-03T02:52:10;25.00;26.70
24730;DHT22;12832;52.392;13.066;2023-03-03T02:54:41;25.00;26.70
24730;DHT22;12832;52.392;13.066;2023-03-03T02:57:08;25.00;26.70
24730;DHT22;12832;52.392;13.066;2023-03-03T02:59:37;25.00;26.70
24730;DHT22;12832;52.392;13.066;2023-03-03T03:02:08;25.00;26.70
24730;DHT22;12832;52.392;13.066;2023-03-03T03:04:39;25.00;26.70
24730;DHT22;12832;52.392;13.066;2023-03-03T03:07:07;25.00;26.70
24730;DHT22;12832;52.392;13.066;2023-03-03T03:09:35;25.00;26.70
24730;DHT22;12832;52.392;13.066;2023-03-03T03:12:02;25.00;26.70
24730;DHT22;12832;52.392;13.066;2023-03-03T03:14:31;25.00;26.70
24730;DHT22;12832;52.392;13.066;2023-03-03T03:17:01;25.10;26.70
24730;DHT22;12832;52.392;13.066;2023-03-03T03:19:28;25.10;26.70
24730;DHT22;12832;52.392;13.066;2023-03-03T03:21:55;25.00;26.70
24730;DHT22;12832;52.392;13.066;2023-03-03T03:24:25;25.00;26.70
24730;DHT22;12832;52.392;13.066;2023-03-03T03:26:55;25.10;26.70
24730;DHT22;12832;52.392;13.066;2023-03-03T03:29:25;25.00;26.70
24730;DHT22;12832;52.392;13.066;2023-03-03T03:31:51;25.00;26.70
24730;DHT22;12832;52.392;13.066;2023-03-03T03:34:20;25.00;26.70
24730;DHT22;12832;52.392;13.066;2023-03-03T03:36:52;25.00;26.70
24730;DHT22;12832;52.392;13.066;2023-03-03T03:39:19;25.00;26.70
24730;DHT22;12832;52.392;13.066;2023-03-03T03:41:48;25.10;26.80
24730;DHT22;12832;52.392;13.066;2023-03-03T03:44:18;25.10;26.70
24730;DHT22;12832;52.392;13.066;2023-03-03T03:46:47;25.10;26.70
24730;DHT22;12832;52.392;13.066;2023-03-03T03:49:18;25.00;26.70
24730;DHT22;12832;52.392;13.066;2023-03-03T03:51:48;25.00;26.70
24730;DHT22;12832;52.392;13.066;2023-03-03T03:54:17;25.00;26.70
24730;DHT22;12832;52.392;13.066;2023-03-03T03:56:44;25.00;26.70
24730;DHT22;12832;52.392;13.066;2023-03-03T03:59:13;25.00;26.70
24730;DHT22;12832;52.392;13.066;2023-03-03T04:01:41;25.00;26.70
24730;DHT22;12832;52.392;13.066;2023-03-03T04:04:11;25.10;26.70
24730;DHT22;12832;52.392;13.066;2023-03-03T04:06:40;25.10;26.70
24730;DHT22;12832;52.392;13.066;2023-03-03T04:09:10;25.10;26.70
24730;DHT22;12832;52.392;13.066;2023-03-03T04:11:37;25.00;26.70
24730;DHT22;12832;52.392;13.066;2023-03-03T04:14:05;25.10;26.80
24730;DHT22;12832;52.392;13.066;2023-03-03T04:16:33;25.10;26.80
24730;DHT22;12832;52.392;13.066;2023-03-03T04:19:03;25.10;26.80
24730;DHT22;12832;52.392;13.066;2023-03-03T04:21:30;25.00;26.80
24730;DHT22;12832;52.392;13.066;2023-03-03T04:23:58;25.10;26.80
24730;DHT22;12832;52.392;13.066;2023-03-03T04:26:30;25.10;26.80
24730;DHT22;12832;52.392;13.066;2023-03-03T04:28:57;25.10;26.70
24730;DHT22;12832;52.392;13.066;2023-03-03T04:31:28;25.10;26.70
24730;DHT22;12832;52.392;13.066;2023-03-03T04:33:57;25.10;26.70
24730;DHT22;12832;52.392;13.066;2023-03-03T04:36:25;25.10;26.70
24730;DHT22;12832;52.392;13.066;2023-03-03T04:38:54;25.10;26.70
24730;DHT22;12832;52.392;13.066;2023-03-03T04:41:23;25.10;26.80
24730;DHT22;12832;52.392;13.066;2023-03-03T04:43:51;25.10;27.20
24730;DHT22;12832;52.392;13.066;2023-03-03T04:46:19;25.10;26.70
24730;DHT22;12832;52.392;13.066;2023-03-03T04:48:46;25.10;26.70
24730;DHT22;12832;52.392;13.066;2023-03-03T04:51:15;25.10;26.70
24730;DHT22;12832;52.392;13.066;2023-03-03T04:53:45;25.10;26.70
24730;DHT22;12832;52.392;13.066;2023-03-03T04:56:12;25.10;26.70
24730;DHT22;12832;52.392;13.066;2023-03-03T04:58:40;25.10;26.60
24730;DHT22;12832;52.392;13.066;2023-03-03T05:01:12;25.10;26.70
24730;DHT22;12832;52.392;13.066;2023-03-03T05:03:41;25.10;26.70
24730;DHT22;12832;52.392;13.066;2023-03-03T05:06:08;25.10;26.70
24730;DHT22;12832;52.392;13.066;2023-03-03T05:08:36;25.10;26.70
24730;DHT22;12832;52.392;13.066;2023-03-03T05:11:04;25.10;26.70
24730;DHT22;12832;52.392;13.066;2023-03-03T05:13:32;25.10;26.70
24730;DHT22;12832;52.392;13.066;2023-03-03T05:15:59;25.00;26.70
24730;DHT22;12832;52.392;13.066;2023-03-03T05:18:27;25.10;26.70
24730;DHT22;12832;52.392;13.066;2023-03-03T05:20:55;25.10;26.80
24730;DHT22;12832;52.392;13.066;2023-03-03T05:23:23;25.10;26.80
24730;DHT22;12832;52.392;13.066;2023-03-03T05:25:50;25.10;26.80
24730;DHT22;12832;52.392;13.066;2023-03-03T05:28:19;25.00;26.80
24730;DHT22;12832;52.392;13.066;2023-03-03T05:30:47;25.10;26.80
24730;DHT22;12832;52.392;13.066;2023-03-03T05:33:18;25.10;26.80
24730;DHT22;12832;52.392;13.066;2023-03-03T05:35:58;25.10;26.90
24730;DHT22;12832;52.392;13.066;2023-03-03T05:38:24;25.10;26.90
24730;DHT22;12832;52.392;13.066;2023-03-03T05:40:51;25.00;26.90
24730;DHT22;12832;52.392;13.066;2023-03-03T05:43:18;25.00;26.90
24730;DHT22;12832;52.392;13.066;2023-03-03T05:45:55;25.10;26.90
24730;DHT22;12832;52.392;13.066;2023-03-03T05:48:22;25.10;26.80
24730;DHT22;12832;52.392;13.066;2023-03-03T05:50:49;25.10;26.80
24730;DHT22;12832;52.392;13.066;2023-03-03T05:53:16;25.10;26.80
24730;DHT22;12832;52.392;13.066;2023-03-03T05:55:43;25.10;26.80
24730;DHT22;12832;52.392;13.066;2023-03-03T05:58:11;25.10;26.70
24730;DHT22;12832;52.392;13.066;2023-03-03T06:00:38;25.10;26.70
24730;DHT22;12832;52.392;13.066;2023-03-03T06:03:05;25.10;26.50
24730;DHT22;12832;52.392;13.066;2023-03-03T06:05:31;25.00;26.10
24730;DHT22;12832;52.392;13.066;2023-03-03T06:07:58;24.90;26.00
24730;DHT22;12832;52.392;13.066;2023-03-03T06:10:25;24.90;26.00
24730;DHT22;12832;52.392;13.066;2023-03-03T06:12:51;24.90;26.00
24730;DHT22;12832;52.392;13.066;2023-03-03T06:15:18;24.90;26.00
24730;DHT22;12832;52.392;13.066;2023-03-03T06:17:46;24.80;26.00
24730;DHT22;12832;52.392;13.066;2023-03-03T06:20:12;24.80;26.00
24730;DHT22;12832;52.392;13.066;2023-03-03T06:22:39;24.80;26.10
24730;DHT22;12832;52.392;13.066;2023-03-03T06:25:07;24.80;26.20
24730;DHT22;12832;52.392;13.066;2023-03-03T06:27:35;24.70;26.10
24730;DHT22;12832;52.392;13.066;2023-03-03T06:30:02;24.70;26.10
24730;DHT22;12832;52.392;13.066;2023-03-03T06:32:29;24.70;26.10
24730;DHT22;12832;52.392;13.066;2023-03-03T06:34:56;24.70;26.10
24730;DHT22;12832;52.392;13.066;2023-03-03T06:37:23;24.70;26.20
24730;DHT22;12832;52.392;13.066;2023-03-03T06:39:49;24.70;26.20
24730;DHT22;12832;52.392;13.066;2023-03-03T06:42:18;24.70;26.20
24730;DHT22;12832;52.392;13.066;2023-03-03T06:44:45;24.60;26.20
24730;DHT22;12832;52.392;13.066;2023-03-03T06:47:12;24.60;26.10
24730;DHT22;12832;52.392;13.066;2023-03-03T06:49:39;24.60;26.10
24730;DHT22;12832;52.392;13.066;2023-03-03T06:52:16;24.60;26.10
24730;DHT22;12832;52.392;13.066;2023-03-03T06:54:44;24.60;26.20
24730;DHT22;12832;52.392;13.066;2023-03-03T06:57:24;24.60;26.20
24730;DHT22;12832;52.392;13.066;2023-03-03T06:59:54;24.60;26.20
24730;DHT22;12832;52.392;13.066;2023-03-03T07:02:23;24.60;26.10
24730;DHT22;12832;52.392;13.066;2023-03-03T07:04:50;24.60;26.10
24730;DHT22;12832;52.392;13.066;2023-03-03T07:07:23;24.60;26.00
24730;DHT22;12832;52.392;13.066;2023-03-03T07:09:55;24.60;26.10
24730;DHT22;12832;52.392;13.066;2023-03-03T07:12:28;24.60;26.10
24730;DHT22;12832;52.392;13.066;2023-03-03T07:17:48;24.60;26.30
24730;DHT22;12832;52.392;13.066;2023-03-03T07:20:22;24.60;26.10
24730;DHT22;12832;52.392;13.066;2023-03-03T07:22:50;24.50;26.10
24730;DHT22;12832;52.392;13.066;2023-03-03T07:25:30;24.60;26.20
24730;DHT22;12832;52.392;13.066;2023-03-03T07:28:09;24.50;26.10
24730;DHT22;12832;52.392;13.066;2023-03-03T07:30:39;24.50;26.20
24730;DHT22;12832;52.392;13.066;2023-03-03T07:35:46;24.50;26.30
24730;DHT22;12832;52.392;13.066;2023-03-03T07:38:23;24.50;26.20
24730;DHT22;12832;52.392;13.066;2023-03-03T07:40:53;24.50;26.20
24730;DHT22;12832;52.392;13.066;2023-03-03T07:48:42;24.50;26.20
24730;DHT22;12832;52.392;13.066;2023-03-03T07:51:36;24.50;26.20
24730;DHT22;12832;52.392;13.066;2023-03-03T07:57:21;24.50;26.50
24730;DHT22;12832;52.392;13.066;2023-03-03T07:59:52;24.50;26.60
24730;DHT22;12832;52.392;13.066;2023-03-03T08:02:40;24.50;26.60
24730;DHT22;12832;52.392;13.066;2023-03-03T08:05:35;24.40;26.50
24730;DHT22;12832;52.392;13.066;2023-03-03T08:08:26;24.40;26.40
24730;DHT22;12832;52.392;13.066;2023-03-03T08:10:58;24.40;26.40
24730;DHT22;12832;52.392;13.066;2023-03-03T08:16:23;24.40;26.40
24730;DHT22;12832;52.392;13.066;2023-03-03T08:19:01;24.40;26.90
24730;DHT22;12832;52.392;13.066;2023-03-03T08:21:29;24.40;26.50
24730;DHT22;12832;52.392;13.066;2023-03-03T08:23:58;24.40;26.60
24730;DHT22;12832;52.392;13.066;2023-03-03T08:26:25;24.40;26.60
24730;DHT22;12832;52.392;13.066;2023-03-03T08:28:53;24.40;26.80
24730;DHT22;12832;52.392;13.066;2023-03-03T08:31:21;24.40;26.90
24730;DHT22;12832;52.392;13.066;2023-03-03T08:34:05;24.40;26.80
24730;DHT22;12832;52.392;13.066;2023-03-03T08:36:32;24.40;26.70
24730;DHT22;12832;52.392;13.066;2023-03-03T08:39:01;24.40;26.70
24730;DHT22;12832;52.392;13.066;2023-03-03T08:41:29;24.40;26.60
24730;DHT22;12832;52.392;13.066;2023-03-03T08:43:57;24.40;26.70
24730;DHT22;12832;52.392;13.066;2023-03-03T08:46:24;24.40;27.20
24730;DHT22;12832;52.392;13.066;2023-03-03T08:48:52;24.40;26.60
24730;DHT22;12832;52.392;13.066;2023-03-03T08:51:19;24.40;26.50
24730;DHT22;12832;52.392;13.066;2023-03-03T08:53:47;24.40;26.60
24730;DHT22;12832;52.392;13.066;2023-03-03T08:56:15;24.40;26.40
24730;DHT22;12832;52.392;13.066;2023-03-03T08:58:47;24.40;26.40
24730;DHT22;12832;52.392;13.066;2023-03-03T09:01:31;24.40;26.30
24730;DHT22;12832;52.392;13.066;2023-03-03T09:04:00;24.40;26.20
24730;DHT22;12832;52.392;13.066;2023-03-03T09:06:28;24.40;26.10
24730;DHT22;12832;52.392;13.066;2023-03-03T09:08:56;24.40;26.10
24730;DHT22;12832;52.392;13.066;2023-03-03T09:11:26;24.40;26.10
24730;DHT22;12832;52.392;13.066;2023-03-03T09:14:03;24.40;26.20
24730;DHT22;12832;52.392;13.066;2023-03-03T09:16:50;24.40;26.20
24730;DHT22;12832;52.392;13.066;2023-03-03T09:19:28;24.40;26.20
24730;DHT22;12832;52.392;13.066;2023-03-03T09:22:22;24.40;26.20
24730;DHT22;12832;52.392;13.066;2023-03-03T09:24:53;24.40;26.20
24730;DHT22;12832;52.392;13.066;2023-03-03T09:27:30;24.40;26.10
24730;DHT22;12832;52.392;13.066;2023-03-03T09:30:10;24.30;26.00
24730;DHT22;12832;52.392;13.066;2023-03-03T09:32:42;24.40;26.10
24730;DHT22;12832;52.392;13.066;2023-03-03T09:37:57;24.40;26.10
24730;DHT22;12832;52.392;13.066;2023-03-03T09:43:18;24.40;26.10
24730;DHT22;12832;52.392;13.066;2023-03-03T09:46:30;24.40;26.20
24730;DHT22;12832;52.392;13.066;2023-03-03T09:52:28;24.40;26.10
24730;DHT22;12832;52.392;13.066;2023-03-03T10:03:02;24.30;26.30
24730;DHT22;12832;52.392;13.066;2023-03-03T10:11:44;24.40;26.30
24730;DHT22;12832;52.392;13.066;2023-03-03T10:14:37;24.30;26.20
24730;DHT22;12832;52.392;13.066;2023-03-03T10:20:11;24.30;26.20
24730;DHT22;12832;52.392;13.066;2023-03-03T10:22:55;24.30;26.20
24730;DHT22;12832;52.392;13.066;2023-03-03T10:25:39;24.30;27.00
24730;DHT22;12832;52.392;13.066;2023-03-03T10:31:36;24.30;26.70
24730;DHT22;12832;52.392;13.066;2023-03-03T10:34:43;24.30;26.50
24730;DHT22;12832;52.392;13.066;2023-03-03T10:39:54;24.30;26.50
24730;DHT22;12832;52.392;13.066;2023-03-03T10:42:49;24.30;26.50
24730;DHT22;12832;52.392;13.066;2023-03-03T10:45:37;24.30;26.50
24730;DHT22;12832;52.392;13.066;2023-03-03T10:48:35;24.30;26.50
24730;DHT22;12832;52.392;13.066;2023-03-03T10:54:11;24.30;26.50
24730;DHT22;12832;52.392;13.066;2023-03-03T10:56:44;24.30;26.40
24730;DHT22;12832;52.392;13.066;2023-03-03T11:02:42;24.30;26.50
24730;DHT22;12832;52.392;13.066;2023-03-03T11:08:20;24.30;26.50
24730;DHT22;12832;52.392;13.066;2023-03-03T11:11:19;24.30;26.50
24730;DHT22;12832;52.392;13.066;2023-03-03T11:14:02;24.30;26.50
24730;DHT22;12832;52.392;13.066;2023-03-03T11:22:32;24.30;26.50
24730;DHT22;12832;52.392;13.066;2023-03-03T11:28:21;24.30;26.50
24730;DHT22;12832;52.392;13.066;2023-03-03T11:36:51;24.30;26.50
24730;DHT22;12832;52.392;13.066;2023-03-03T11:39:25;24.30;26.60
24730;DHT22;12832;52.392;13.066;2023-03-03T11:45:30;24.30;26.60
24730;DHT22;12832;52.392;13.066;2023-03-03T11:51:37;24.30;26.50
24730;DHT22;12832;52.392;13.066;2023-03-03T11:54:24;24.30;26.50
24730;DHT22;12832;52.392;13.066;2023-03-03T11:59:55;24.30;26.60
24730;DHT22;12832;52.392;13.066;2023-03-03T12:03:03;24.30;26.90
24730;DHT22;12832;52.392;13.066;2023-03-03T12:06:01;24.30;26.90
24730;DHT22;12832;52.392;13.066;2023-03-03T12:09:11;24.30;26.80
24730;DHT22;12832;52.392;13.066;2023-03-03T12:12:06;24.30;26.70
24730;DHT22;12832;52.392;13.066;2023-03-03T12:20:44;24.30;26.80
24730;DHT22;12832;52.392;13.066;2023-03-03T12:23:19;24.20;26.70
24730;DHT22;12832;52.392;13.066;2023-03-03T12:26:10;24.30;26.80
24730;DHT22;12832;52.392;13.066;2023-03-03T12:32:51;24.30;26.70
24730;DHT22;12832;52.392;13.066;2023-03-03T12:35:25;24.20;26.60
24730;DHT22;12832;52.392;13.066;2023-03-03T12:43:55;24.30;26.70
24730;DHT22;12832;52.392;13.066;2023-03-03T12:47:04;24.30;26.70
24730;DHT22;12832;52.392;13.066;2023-03-03T12:50:22;24.20;26.70
24730;DHT22;12832;52.392;13.066;2023-03-03T13:00:42;24.30;26.70
24730;DHT22;12832;52.392;13.066;2023-03-03T13:03:52;24.20;26.70
24730;DHT22;12832;52.392;13.066;2023-03-03T13:06:31;24.20;26.70
24730;DHT22;12832;52.392;13.066;2023-03-03T13:20:58;24.20;26.70
24730;DHT22;12832;52.392;13.066;2023-03-03T13:26:36;24.20;26.80
24730;DHT22;12832;52.392;13.066;2023-03-03T13:32:07;24.20;26.70
24730;DHT22;12832;52.392;13.066;2023-03-03T13:37:47;24.20;26.80
24730;DHT22;12832;52.392;13.066;2023-03-03T13:40:23;24.20;26.80
24730;DHT22;12832;52.392;13.066;2023-03-03T13:43:03;24.20;26.80
24730;DHT22;12832;52.392;13.066;2023-03-03T13:51:59;24.20;26.90
24730;DHT22;12832;52.392;13.066;2023-03-03T13:54:50;24.20;26.90
24730;DHT22;12832;52.392;13.066;2023-03-03T14:05:51;24.20;26.90
24730;DHT22;12832;52.392;13.066;2023-03-03T14:11:18;24.20;26.90
24730;DHT22;12832;52.392;13.066;2023-03-03T14:14:07;24.20;26.80
24730;DHT22;12832;52.392;13.066;2023-03-03T14:16:55;24.20;26.80
24730;DHT22;12832;52.392;13.066;2023-03-03T14:19:47;24.20;26.90
24730;DHT22;12832;52.392;13.066;2023-03-03T14:22:21;24.20;26.80
24730;DHT22;12832;52.392;13.066;2023-03-03T14:25:07;24.20;26.80
24730;DHT22;12832;52.392;13.066;2023-03-03T14:35:34;24.20;26.80
24730;DHT22;12832;52.392;13.066;2023-03-03T14:38:14;24.20;26.80
24730;DHT22;12832;52.392;13.066;2023-03-03T14:40:48;24.20;26.80
24730;DHT22;12832;52.392;13.066;2023-03-03T14:43:24;24.20;26.90
24730;DHT22;12832;52.392;13.066;2023-03-03T14:46:29;24.20;26.90
24730;DHT22;12832;52.392;13.066;2023-03-03T14:49:11;24.20;27.00
24730;DHT22;12832;52.392;13.066;2023-03-03T14:51:48;24.20;27.50
24730;DHT22;12832;52.392;13.066;2023-03-03T14:54:26;24.20;26.90
24730;DHT22;12832;52.392;13.066;2023-03-03T14:59:35;24.20;26.90
24730;DHT22;12832;52.392;13.066;2023-03-03T15:04:46;24.20;26.90
24730;DHT22;12832;52.392;13.066;2023-03-03T15:07:34;24.20;26.90
24730;DHT22;12832;52.392;13.066;2023-03-03T15:10:06;24.20;26.90
24730;DHT22;12832;52.392;13.066;2023-03-03T15:12:38;24.20;26.90
24730;DHT22;12832;52.392;13.066;2023-03-03T15:15:20;24.20;26.90
24730;DHT22;12832;52.392;13.066;2023-03-03T15:18:00;24.20;26.90
24730;DHT22;12832;52.392;13.066;2023-03-03T15:21:05;24.20;26.90
24730;DHT22;12832;52.392;13.066;2023-03-03T15:31:37;24.20;26.90
24730;DHT22;12832;52.392;13.066;2023-03-03T15:34:25;24.20;26.90
24730;DHT22;12832;52.392;13.066;2023-03-03T15:40:18;24.20;27.00
24730;DHT22;12832;52.392;13.066;2023-03-03T15:46:32;24.20;27.00
24730;DHT22;12832;52.392;13.066;2023-03-03T15:49:19;24.20;27.10
24730;DHT22;12832;52.392;13.066;2023-03-03T15:52:02;24.20;27.10
24730;DHT22;12832;52.392;13.066;2023-03-03T16:03:34;24.20;27.20
24730;DHT22;12832;52.392;13.066;2023-03-03T16:06:12;24.20;27.20
24730;DHT22;12832;52.392;13.066;2023-03-03T16:11:48;24.20;27.30
24730;DHT22;12832;52.392;13.066;2023-03-03T16:14:34;24.20;27.30
24730;DHT22;12832;52.392;13.066;2023-03-03T16:31:18;24.20;27.30
24730;DHT22;12832;52.392;13.066;2023-03-03T16:42:38;24.30;27.40
24730;DHT22;12832;52.392;13.066;2023-03-03T16:45:23;24.20;27.30
24730;DHT22;12832;52.392;13.066;2023-03-03T16:56:22;24.20;27.40
24730;DHT22;12832;52.392;13.066;2023-03-03T17:01:54;24.20;27.40
24730;DHT22;12832;52.392;13.066;2023-03-03T17:04:57;24.20;27.40
24730;DHT22;12832;52.392;13.066;2023-03-03T17:07:51;24.20;27.40
24730;DHT22;12832;52.392;13.066;2023-03-03T17:10:24;24.20;27.50
24730;DHT22;12832;52.392;13.066;2023-03-03T17:27:45;24.20;27.50
24730;DHT22;12832;52.392;13.066;2023-03-03T17:30:25;24.20;27.40
24730;DHT22;12832;52.392;13.066;2023-03-03T17:33:01;24.20;27.40
24730;DHT22;12832;52.392;13.066;2023-03-03T17:35:36;24.20;27.40
24730;DHT22;12832;52.392;13.066;2023-03-03T17:38:17;24.20;27.40
24730;DHT22;12832;52.392;13.066;2023-03-03T17:41:38;24.20;27.40
24730;DHT22;12832;52.392;13.066;2023-03-03T17:49:45;24.20;27.40
24730;DHT22;12832;52.392;13.066;2023-03-03T17:52:50;24.30;27.40
24730;DHT22;12832;52.392;13.066;2023-03-03T17:58:05;24.30;27.40
24730;DHT22;12832;52.392;13.066;2023-03-03T18:00:59;24.30;27.40
24730;DHT22;12832;52.392;13.066;2023-03-03T18:21:08;24.40;27.20
24730;DHT22;12832;52.392;13.066;2023-03-03T18:23:42;24.40;27.20
24730;DHT22;12832;52.392;13.066;2023-03-03T18:26:37;24.50;27.20
24730;DHT22;12832;52.392;13.066;2023-03-03T18:39:45;24.60;27.10
24730;DHT22;12832;52.392;13.066;2023-03-03T18:44:46;24.60;27.10
24730;DHT22;12832;52.392;13.066;2023-03-03T18:47:15;24.60;27.10
24730;DHT22;12832;52.392;13.066;2023-03-03T18:55:49;24.60;27.00
24730;DHT22;12832;52.392;13.066;2023-03-03T19:00:51;24.70;27.00
24730;DHT22;12832;52.392;13.066;2023-03-03T19:03:55;24.60;27.00
24730;DHT22;12832;52.392;13.066;2023-03-03T19:09:05;24.70;27.00
24730;DHT22;12832;52.392;13.066;2023-03-03T19:11:38;24.70;27.00
24730;DHT22;12832;52.392;13.066;2023-03-03T19:14:20;24.70;27.00
24730;DHT22;12832;52.392;13.066;2023-03-03T19:20:11;24.70;27.00
24730;DHT22;12832;52.392;13.066;2023-03-03T19:23:04;24.70;27.00
24730;DHT22;12832;52.392;13.066;2023-03-03T19:25:33;24.70;27.00
24730;DHT22;12832;52.392;13.066;2023-03-03T19:28:04;24.70;27.00
24730;DHT22;12832;52.392;13.066;2023-03-03T19:30:49;24.70;27.00
24730;DHT22;12832;52.392;13.066;2023-03-03T19:36:53;24.70;27.00
24730;DHT22;12832;52.392;13.066;2023-03-03T19:39:59;24.70;27.00
24730;DHT22;12832;52.392;13.066;2023-03-03T19:56:40;24.70;27.00
24730;DHT22;12832;52.392;13.066;2023-03-03T20:08:10;24.70;26.90
24730;DHT22;12832;52.392;13.066;2023-03-03T20:11:09;24.70;26.90
24730;DHT22;12832;52.392;13.066;2023-03-03T20:14:07;24.80;27.00
24730;DHT22;12832;52.392;13.066;2023-03-03T20:16:41;24.80;27.00
24730;DHT22;12832;52.392;13.066;2023-03-03T20:36:27;24.80;27.00
24730;DHT22;12832;52.392;13.066;2023-03-03T20:39:06;24.80;27.00
24730;DHT22;12832;52.392;13.066;2023-03-03T20:42:07;24.80;26.90
24730;DHT22;12832;52.392;13.066;2023-03-03T20:56:21;24.90;26.90
24730;DHT22;12832;52.392;13.066;2023-03-03T20:59:03;24.90;26.80
24730;DHT22;12832;52.392;13.066;2023-03-03T21:02:01;25.00;26.80
24730;DHT22;12832;52.392;13.066;2023-03-03T21:04:33;25.00;26.80
24730;DHT22;12832;52.392;13.066;2023-03-03T21:07:03;25.00;26.80
24730;DHT22;12832;52.392;13.066;2023-03-03T21:09:38;25.00;26.80
24730;DHT22;12832;52.392;13.066;2023-03-03T21:12:29;25.00;26.80
24730;DHT22;12832;52.392;13.066;2023-03-03T21:15:03;25.00;26.80
24730;DHT22;12832;52.392;13.066;2023-03-03T21:17:35;25.00;26.80
24730;DHT22;12832;52.392;13.066;2023-03-03T21:23:11;25.00;26.70
24730;DHT22;12832;52.392;13.066;2023-03-03T21:25:48;25.00;26.70
24730;DHT22;12832;52.392;13.066;2023-03-03T21:28:35;25.10;26.70
24730;DHT22;12832;52.392;13.066;2023-03-03T21:31:17;25.10;26.70
24730;DHT22;12832;52.392;13.066;2023-03-03T21:34:03;25.10;26.70
24730;DHT22;12832;52.392;13.066;2023-03-03T21:36:51;25.10;26.70
24730;DHT22;12832;52.392;13.066;2023-03-03T21:39:31;25.10;26.70
24730;DHT22;12832;52.392;13.066;2023-03-03T21:42:16;25.10;26.70
24730;DHT22;12832;52.392;13.066;2023-03-03T21:44:57;25.10;26.70
24730;DHT22;12832;52.392;13.066;2023-03-03T21:47:41;25.10;26.70
24730;DHT22;12832;52.392;13.066;2023-03-03T21:50:10;25.00;26.70
24730;DHT22;12832;52.392;13.066;2023-03-03T21:52:43;25.10;26.70
24730;DHT22;12832;52.392;13.066;2023-03-03T21:55:17;25.10;26.70
24730;DHT22;12832;52.392;13.066;2023-03-03T21:57:46;25.10;26.70
24730;DHT22;12832;52.392;13.066;2023-03-03T22:00:17;25.10;26.70
24730;DHT22;12832;52.392;13.066;2023-03-03T22:02:55;25.10;26.70
24730;DHT22;12832;52.392;13.066;2023-03-03T22:05:23;25.10;26.70